createdAt,value
2023-03-08T00:01:17.745Z,6.40
2023-03-08T00:03:45.124Z,6.30
2023-03-08T00:06:14.395Z,6.40
2023-03-08T00:08:41.526Z,6.30
2023-03-08T00:11:09.913Z,6.30
2023-03-08T00:13:36.504Z,6.30
2023-03-08T00:16:05.391Z,6.30
2023-03-08T00:18:32.763Z,6.30
2023-03-08T00:21:11.036Z,6.30
2023-03-08T00:23:41.652Z,6.30
2023-03-08T00:26:09.364Z,6.20
2023-03-08T00:28:39.217Z,6.20
2023-03-08T00:31:11.917Z,6.20
2023-03-08T00:33:39.053Z,6.30
2023-03-08T00:36:09.730Z,6.20
2023-03-08T00:38:37.110Z,6.20
2023-03-08T00:41:04.425Z,6.20
2023-03-08T00:43:31.442Z,6.10
2023-03-08T00:45:58.148Z,6.20
2023-03-08T00:48:24.880Z,6.20
2023-03-08T00:50:51.996Z,6.10
2023-03-08T00:53:18.702Z,6.10
2023-03-08T00:55:53.541Z,6.10
2023-03-08T00:58:20.966Z,6.10
2023-03-08T01:00:48.658Z,6.10
2023-03-08T01:03:16.252Z,6.20
2023-03-08T01:05:54.757Z,6.10
2023-03-08T01:08:22.911Z,6.00
2023-03-08T01:10:56.816Z,5.90
2023-03-08T01:13:31.453Z,5.90
2023-03-08T01:15:58.801Z,5.70
2023-03-08T01:18:25.859Z,5.80
2023-03-08T01:21:01.069Z,5.70
2023-03-08T01:23:27.998Z,5.80
2023-03-08T01:26:22.390Z,5.70
2023-03-08T01:28:49.777Z,5.70
2023-03-08T01:31:24.518Z,5.70
2023-03-08T01:33:51.981Z,5.60
2023-03-08T01:36:21.639Z,5.70
2023-03-08T01:38:48.984Z,5.70
2023-03-08T01:41:18.882Z,5.70
2023-03-08T01:43:46.798Z,5.70
2023-03-08T01:46:36.920Z,5.70
2023-03-08T01:49:08.780Z,5.60
2023-03-08T01:52:10.046Z,5.70
2023-03-08T01:54:41.992Z,5.60
2023-03-08T01:57:26.928Z,5.60
2023-03-08T01:59:57.880Z,5.60
2023-03-08T02:05:00.053Z,5.50
2023-03-08T02:07:26.722Z,5.50
2023-03-08T02:09:53.815Z,5.50
2023-03-08T02:12:21.433Z,5.50
2023-03-08T02:14:48.235Z,5.40
2023-03-08T02:17:14.881Z,5.40
2023-03-08T02:20:12.949Z,5.40
2023-03-08T02:22:41.545Z,5.50
2023-03-08T02:25:26.951Z,5.50
2023-03-08T02:27:54.794Z,5.50
2023-03-08T02:30:29.482Z,5.50
2023-03-08T02:32:56.115Z,5.50
2023-03-08T02:35:22.691Z,5.40
2023-03-08T02:37:49.330Z,5.40
2023-03-08T02:40:15.938Z,5.30
2023-03-08T02:42:42.557Z,5.40
2023-03-08T02:45:09.684Z,5.40
2023-03-08T02:47:36.668Z,5.30
2023-03-08T02:50:03.845Z,5.30
2023-03-08T02:52:30.438Z,5.30
2023-03-08T02:54:57.089Z,5.30
2023-03-08T02:57:23.828Z,5.30
2023-03-08T02:59:50.405Z,5.30
2023-03-08T03:02:17.035Z,5.30
2023-03-08T03:04:43.833Z,5.30
2023-03-08T03:07:10.403Z,5.40
2023-03-08T03:09:39.890Z,5.50
2023-03-08T03:12:06.827Z,5.50
2023-03-08T03:14:33.506Z,5.50
2023-03-08T03:17:00.199Z,5.50
2023-03-08T03:19:26.936Z,5.40
2023-03-08T03:21:53.777Z,5.40
2023-03-08T03:24:20.402Z,5.40
2023-03-08T03:26:49.472Z,5.40
2023-03-08T03:29:16.061Z,5.40
2023-03-08T03:31:42.724Z,5.40
2023-03-08T03:34:12.309Z,5.40
2023-03-08T03:36:38.998Z,5.40
2023-03-08T03:39:05.765Z,5.40
2023-03-08T03:41:32.503Z,5.30
2023-03-08T03:43:59.409Z,5.30
2023-03-08T03:46:26.104Z,5.30
2023-03-08T03:48:52.988Z,5.40
2023-03-08T03:51:22.126Z,5.30
2023-03-08T03:53:48.947Z,5.20
2023-03-08T03:56:18.804Z,5.20
2023-03-08T03:58:45.784Z,5.20
2023-03-08T04:01:40.407Z,5.20
2023-03-08T04:04:07.252Z,5.20
2023-03-08T04:06:35.871Z,5.10
2023-03-08T04:09:06.224Z,5.10
2023-03-08T04:11:36.331Z,5.00
2023-03-08T04:14:04.396Z,5.00
2023-03-08T04:16:38.480Z,5.10
2023-03-08T04:19:09.842Z,5.00
2023-03-08T04:21:36.548Z,5.00
2023-03-08T04:24:03.718Z,5.00
2023-03-08T04:26:30.590Z,5.00
2023-03-08T04:28:57.712Z,5.00
2023-03-08T04:31:27.534Z,4.90
2023-03-08T04:33:54.598Z,5.00
2023-03-08T04:36:22.079Z,5.00
2023-03-08T04:38:50.817Z,4.90
2023-03-08T04:41:17.705Z,4.90
2023-03-08T04:43:52.748Z,4.80
2023-03-08T04:46:21.905Z,4.80
2023-03-08T04:48:49.346Z,4.80
2023-03-08T04:51:16.781Z,4.80
2023-03-08T04:53:45.229Z,4.70
2023-03-08T04:56:14.338Z,4.70
2023-03-08T04:58:41.982Z,4.80
2023-03-08T05:01:15.038Z,4.80
2023-03-08T05:03:41.685Z,4.80
2023-03-08T05:06:09.312Z,4.80
2023-03-08T05:08:36.709Z,4.80
2023-03-08T05:11:04.673Z,4.80
2023-03-08T05:13:34.559Z,4.80
2023-03-08T05:16:02.167Z,4.90
2023-03-08T05:18:29.043Z,4.90
2023-03-08T05:21:01.966Z,4.90
2023-03-08T05:23:29.480Z,4.80
2023-03-08T05:25:58.249Z,4.80
2023-03-08T05:28:27.619Z,4.70
2023-03-08T05:31:06.014Z,4.70
2023-03-08T05:33:33.680Z,4.60
2023-03-08T05:36:00.377Z,4.60
2023-03-08T05:38:27.409Z,4.60
2023-03-08T05:40:54.150Z,4.60
2023-03-08T05:43:21.947Z,4.70
2023-03-08T05:46:00.790Z,4.70
2023-03-08T05:48:27.785Z,4.80
2023-03-08T05:50:55.164Z,4.90
2023-03-08T05:53:22.816Z,5.00
2023-03-08T05:55:49.563Z,5.00
2023-03-08T05:58:16.411Z,5.00
2023-03-08T06:00:43.036Z,5.00
2023-03-08T06:03:09.705Z,5.00
2023-03-08T06:05:36.623Z,5.10
2023-03-08T06:08:03.349Z,5.00
2023-03-08T06:10:29.979Z,5.10
2023-03-08T06:12:56.737Z,5.10
2023-03-08T06:15:23.427Z,5.00
2023-03-08T06:17:53.632Z,5.10
2023-03-08T06:20:20.425Z,5.00
2023-03-08T06:22:47.006Z,5.00
2023-03-08T06:25:13.581Z,4.90
2023-03-08T06:27:40.172Z,4.90
2023-03-08T06:30:08.380Z,4.90
2023-03-08T06:32:39.745Z,5.00
2023-03-08T06:35:08.821Z,4.90
2023-03-08T06:37:37.268Z,5.00
2023-03-08T06:40:05.788Z,5.00
2023-03-08T06:42:40.986Z,5.10
2023-03-08T06:45:09.394Z,5.10
2023-03-08T06:47:38.561Z,5.10
2023-03-08T06:50:07.138Z,5.10
2023-03-08T06:52:37.742Z,5.10
2023-03-08T06:55:05.335Z,5.20
2023-03-08T06:57:32.773Z,5.10
2023-03-08T06:59:59.397Z,5.20
2023-03-08T07:02:25.987Z,5.20
2023-03-08T07:04:52.573Z,5.20
2023-03-08T07:07:19.305Z,5.20
2023-03-08T07:09:45.953Z,5.20
2023-03-08T07:12:12.529Z,5.20
2023-03-08T07:14:39.247Z,5.30
2023-03-08T07:17:07.125Z,5.30
2023-03-08T07:19:33.722Z,5.30
2023-03-08T07:22:00.347Z,5.30
2023-03-08T07:24:26.961Z,5.40
2023-03-08T07:26:53.660Z,5.40
2023-03-08T07:29:20.244Z,5.50
2023-03-08T07:31:46.879Z,5.50
2023-03-08T07:34:13.519Z,5.50
2023-03-08T07:36:40.590Z,5.50
2023-03-08T07:39:07.184Z,5.40
2023-03-08T07:41:34.826Z,5.40
2023-03-08T07:44:02.393Z,5.40
2023-03-08T07:46:29.557Z,5.50
2023-03-08T07:48:56.578Z,5.50
2023-03-08T07:51:23.443Z,5.50
2023-03-08T07:53:52.070Z,5.50
2023-03-08T07:56:18.737Z,5.60
2023-03-08T07:58:46.056Z,5.60
2023-03-08T08:01:14.539Z,5.70
2023-03-08T08:03:41.511Z,5.70
2023-03-08T08:06:09.210Z,5.80
2023-03-08T08:08:35.904Z,5.80
2023-03-08T08:11:02.741Z,5.90
2023-03-08T08:13:29.594Z,5.90
2023-03-08T08:16:01.604Z,6.00
2023-03-08T08:18:28.809Z,6.00
2023-03-08T08:21:07.643Z,6.10
2023-03-08T08:23:35.577Z,6.20
2023-03-08T08:26:07.093Z,6.30
2023-03-08T08:28:34.314Z,6.30
2023-03-08T08:31:08.655Z,6.40
2023-03-08T08:33:35.590Z,6.50
2023-03-08T08:36:05.996Z,6.50
2023-03-08T08:38:32.664Z,6.50
2023-03-08T08:41:00.969Z,6.50
2023-03-08T08:43:28.420Z,6.60
2023-03-08T08:45:57.484Z,6.60
2023-03-08T08:48:25.460Z,6.60
2023-03-08T08:50:52.641Z,6.70
2023-03-08T08:53:20.303Z,6.70
2023-03-08T08:55:47.236Z,6.70
2023-03-08T08:58:15.650Z,6.80
2023-03-08T09:00:42.551Z,6.80
2023-03-08T09:03:09.409Z,7.00
2023-03-08T09:05:39.729Z,7.00
2023-03-08T09:08:07.137Z,7.00
2023-03-08T09:10:36.330Z,7.00
2023-03-08T09:13:03.507Z,7.10
2023-03-08T09:15:30.344Z,7.20
2023-03-08T09:17:57.338Z,7.20
2023-03-08T09:20:24.004Z,7.20
2023-03-08T09:22:50.944Z,7.20
2023-03-08T09:25:20.716Z,7.20
2023-03-08T09:27:49.655Z,7.30
2023-03-08T09:30:17.690Z,7.40
2023-03-08T09:32:44.581Z,7.40
2023-03-08T09:35:15.387Z,7.50
2023-03-08T09:37:42.126Z,7.60
2023-03-08T09:40:19.301Z,7.60
2023-03-08T09:42:46.161Z,7.70
2023-03-08T09:45:29.292Z,7.80
2023-03-08T09:48:16.237Z,7.80
2023-03-08T09:50:44.544Z,7.90
2023-03-08T09:53:39.814Z,7.80
2023-03-08T09:56:38.416Z,7.80
2023-03-08T09:59:14.157Z,7.90
2023-03-08T10:01:47.175Z,7.90
2023-03-08T10:04:29.606Z,7.90
2023-03-08T10:07:43.129Z,8.00
2023-03-08T10:10:27.599Z,8.00
2023-03-08T10:13:26.259Z,8.00
2023-03-08T10:16:02.288Z,8.10
2023-03-08T10:18:43.945Z,8.20
2023-03-08T10:21:17.147Z,8.30
2023-03-08T10:23:47.173Z,8.40
2023-03-08T10:26:15.148Z,8.50
2023-03-08T10:28:41.801Z,8.60
2023-03-08T10:31:23.985Z,8.60
2023-03-08T10:34:19.092Z,8.70
2023-03-08T10:36:53.636Z,8.90
2023-03-08T10:39:21.198Z,9.00
2023-03-08T10:41:54.386Z,9.10
2023-03-08T10:44:59.217Z,9.10
2023-03-08T10:47:29.291Z,9.20
2023-03-08T10:50:07.994Z,9.30
2023-03-08T10:52:35.188Z,9.30
2023-03-08T10:55:03.039Z,9.40
2023-03-08T10:57:30.016Z,9.40
2023-03-08T11:00:02.366Z,9.50
2023-03-08T11:02:29.447Z,9.60
2023-03-08T11:04:58.651Z,9.70
2023-03-08T11:07:29.286Z,9.80
2023-03-08T11:10:18.092Z,9.80
2023-03-08T11:12:45.593Z,9.90
2023-03-08T11:15:17.186Z,9.90
2023-03-08T11:17:55.238Z,10.10
2023-03-08T11:20:27.460Z,10.10
2023-03-08T11:23:15.697Z,10.20
2023-03-08T11:26:10.115Z,10.30
2023-03-08T11:28:49.004Z,10.40
2023-03-08T11:31:33.588Z,10.40
2023-03-08T11:34:18.351Z,10.50
2023-03-08T11:37:17.337Z,10.70
2023-03-08T11:39:46.011Z,10.80
2023-03-08T11:42:38.477Z,10.80
2023-03-08T11:45:12.887Z,10.90
2023-03-08T11:48:12.518Z,10.90
2023-03-08T11:50:49.297Z,10.80
2023-03-08T11:53:43.833Z,10.90
2023-03-08T11:56:26.849Z,11.00
2023-03-08T11:59:29.756Z,11.00
2023-03-08T12:02:03.172Z,11.00
2023-03-08T12:04:40.593Z,11.10
2023-03-08T12:07:23.568Z,11.10
2023-03-08T12:10:01.237Z,11.20
2023-03-08T12:12:39.747Z,11.20
2023-03-08T12:15:43.404Z,11.30
2023-03-08T12:18:27.521Z,11.30
2023-03-08T12:21:07.303Z,11.40
2023-03-08T12:23:50.846Z,11.50
2023-03-08T12:26:23.627Z,11.50
2023-03-08T12:29:03.270Z,11.60
2023-03-08T12:31:48.933Z,11.60
2023-03-08T12:34:38.529Z,11.60
2023-03-08T12:37:17.896Z,11.70
2023-03-08T12:39:56.987Z,11.80
2023-03-08T12:42:41.416Z,11.80
2023-03-08T12:45:19.881Z,11.80
2023-03-08T12:48:04.520Z,11.90
2023-03-08T12:50:40.538Z,11.90
2023-03-08T12:53:42.231Z,12.00
2023-03-08T12:56:11.809Z,12.00
2023-03-08T12:58:48.073Z,12.00
2023-03-08T13:01:45.813Z,12.00
2023-03-08T13:04:41.963Z,12.00
2023-03-08T13:07:12.615Z,12.00
2023-03-08T13:09:41.940Z,11.90
2023-03-08T13:12:08.536Z,11.90
2023-03-08T13:14:43.785Z,11.80
2023-03-08T13:17:32.911Z,11.80
2023-03-08T13:20:14.369Z,11.80
2023-03-08T13:22:58.577Z,11.90
2023-03-08T13:25:53.820Z,11.90
2023-03-08T13:28:23.362Z,11.90
2023-03-08T13:31:16.819Z,12.00
2023-03-08T13:33:47.855Z,12.00
2023-03-08T13:36:47.710Z,12.10
2023-03-08T13:39:23.217Z,12.20
2023-03-08T13:41:49.984Z,12.20
2023-03-08T13:44:23.929Z,12.30
2023-03-08T13:46:57.156Z,12.30
2023-03-08T13:49:30.617Z,12.30
2023-03-08T13:52:00.591Z,12.30
2023-03-08T13:54:32.123Z,12.30
2023-03-08T13:57:17.127Z,12.20
2023-03-08T13:59:53.037Z,12.20
2023-03-08T14:02:22.685Z,12.20
2023-03-08T14:04:49.476Z,12.10
2023-03-08T14:07:25.486Z,12.00
2023-03-08T14:09:52.405Z,11.90
2023-03-08T14:12:23.217Z,11.80
2023-03-08T14:15:03.006Z,11.90
2023-03-08T14:17:32.630Z,11.80
2023-03-08T14:20:21.561Z,11.80
2023-03-08T14:22:59.103Z,11.70
2023-03-08T14:25:31.883Z,11.70
2023-03-08T14:27:59.005Z,11.60
2023-03-08T14:30:28.461Z,11.50
2023-03-08T14:33:14.764Z,11.50
2023-03-08T14:35:45.250Z,11.50
2023-03-08T14:38:23.369Z,11.40
2023-03-08T14:40:50.861Z,11.40
2023-03-08T14:43:20.455Z,11.40
2023-03-08T14:46:16.230Z,11.40
2023-03-08T14:48:57.898Z,11.30
2023-03-08T14:51:28.702Z,11.30
2023-03-08T14:54:01.236Z,11.20
2023-03-08T14:56:30.374Z,11.20
2023-03-08T14:59:01.293Z,11.20
2023-03-08T15:01:34.276Z,11.20
2023-03-08T15:04:01.738Z,11.20
2023-03-08T15:06:33.881Z,11.20
2023-03-08T15:09:03.825Z,11.20
2023-03-08T15:11:32.009Z,11.30
2023-03-08T15:13:59.306Z,11.20
2023-03-08T15:16:26.300Z,11.20
2023-03-08T15:18:52.913Z,11.20
2023-03-08T15:21:24.561Z,11.20
2023-03-08T15:23:51.805Z,11.20
2023-03-08T15:26:28.870Z,11.10
2023-03-08T15:28:55.789Z,11.00
2023-03-08T15:31:22.438Z,11.00
2023-03-08T15:33:49.152Z,11.00
2023-03-08T15:36:17.786Z,11.00
2023-03-08T15:38:44.741Z,11.00
2023-03-08T15:41:13.074Z,11.00
2023-03-08T15:43:39.722Z,11.00
2023-03-08T15:46:12.932Z,11.00
2023-03-08T15:48:40.022Z,11.00
2023-03-08T15:51:18.718Z,11.10
2023-03-08T15:53:45.872Z,11.10
2023-03-08T15:56:12.665Z,11.10
2023-03-08T15:58:40.996Z,11.10
2023-03-08T16:01:11.868Z,11.00
2023-03-08T16:03:38.891Z,11.00
2023-03-08T16:06:13.388Z,11.00
2023-03-08T16:08:41.146Z,11.00
2023-03-08T16:11:12.895Z,10.90
2023-03-08T16:13:39.621Z,10.90
2023-03-08T16:16:10.210Z,10.90
2023-03-08T16:18:40.490Z,10.90
2023-03-08T16:21:11.579Z,10.90
2023-03-08T16:23:41.744Z,10.90
2023-03-08T16:26:17.131Z,10.90
2023-03-08T16:28:46.587Z,10.90
2023-03-08T16:31:16.625Z,10.80
2023-03-08T16:33:43.554Z,10.80
2023-03-08T16:36:11.483Z,10.90
2023-03-08T16:38:38.330Z,10.90
2023-03-08T16:41:15.403Z,10.90
2023-03-08T16:43:48.434Z,11.00
2023-03-08T16:46:17.850Z,11.00
2023-03-08T16:48:44.573Z,11.00
2023-03-08T16:51:14.793Z,11.00
2023-03-08T16:53:41.710Z,11.10
2023-03-08T16:56:19.081Z,11.10
2023-03-08T16:58:45.685Z,11.10
2023-03-08T17:01:13.480Z,11.10
2023-03-08T17:03:40.907Z,11.10
2023-03-08T17:06:13.270Z,11.20
2023-03-08T17:08:39.986Z,11.20
2023-03-08T17:11:17.796Z,11.30
2023-03-08T17:13:50.780Z,11.30
2023-03-08T17:16:19.761Z,11.40
2023-03-08T17:18:47.490Z,11.40
2023-03-08T17:21:14.378Z,11.40
2023-03-08T17:23:40.995Z,11.50
2023-03-08T17:26:09.477Z,11.40
2023-03-08T17:28:36.437Z,11.30
2023-03-08T17:31:08.049Z,11.40
2023-03-08T17:33:35.055Z,11.50
2023-03-08T17:36:02.126Z,11.50
2023-03-08T17:38:29.036Z,11.50
2023-03-08T17:40:55.634Z,11.50
2023-03-08T17:43:22.376Z,11.60
2023-03-08T17:46:04.162Z,11.50
2023-03-08T17:48:31.214Z,11.60
2023-03-08T17:51:18.391Z,11.60
2023-03-08T17:53:45.757Z,11.60
2023-03-08T17:56:15.522Z,11.70
2023-03-08T17:58:42.545Z,11.70
2023-03-08T18:01:12.272Z,11.70
2023-03-08T18:03:39.477Z,11.70
2023-03-08T18:06:09.210Z,11.80
2023-03-08T18:08:43.322Z,11.80
2023-03-08T18:11:10.051Z,11.80
2023-03-08T18:13:40.771Z,11.80
2023-03-08T18:16:10.614Z,11.80
2023-03-08T18:18:40.505Z,11.90
2023-03-08T18:21:13.888Z,11.80
2023-03-08T18:23:43.147Z,11.80
2023-03-08T18:26:14.033Z,11.80
2023-03-08T18:28:41.098Z,11.90
2023-03-08T18:31:15.769Z,11.90
2023-03-08T18:33:42.655Z,11.90
2023-03-08T18:36:09.506Z,11.90
2023-03-08T18:38:38.689Z,11.90
2023-03-08T18:41:13.520Z,12.00
2023-03-08T18:43:41.087Z,12.00
2023-03-08T18:46:13.240Z,12.00
2023-03-08T18:48:41.111Z,12.10
2023-03-08T18:51:08.042Z,12.10
2023-03-08T18:53:35.954Z,12.20
2023-03-08T18:56:04.621Z,12.30
2023-03-08T18:58:32.024Z,12.30
2023-03-08T19:01:00.379Z,12.30
2023-03-08T19:03:28.276Z,12.30
2023-03-08T19:05:55.813Z,12.30
2023-03-08T19:08:22.433Z,12.40
2023-03-08T19:10:49.002Z,12.40
2023-03-08T19:13:15.625Z,12.50
2023-03-08T19:15:42.597Z,12.50
2023-03-08T19:18:10.482Z,12.50
2023-03-08T19:20:41.345Z,12.50
2023-03-08T19:23:09.451Z,12.50
2023-03-08T19:26:00.423Z,12.50
2023-03-08T19:28:27.265Z,12.50
2023-03-08T19:30:53.969Z,12.50
2023-03-08T19:33:30.367Z,12.60
2023-03-08T19:35:57.742Z,12.60
2023-03-08T19:38:24.539Z,12.70
2023-03-08T19:40:51.134Z,12.70
2023-03-08T19:43:17.751Z,12.70
2023-03-08T19:45:50.794Z,12.70
2023-03-08T19:48:17.561Z,12.70
2023-03-08T19:50:45.574Z,12.80
2023-03-08T19:53:12.211Z,12.80
2023-03-08T19:55:47.315Z,12.80
2023-03-08T19:58:14.105Z,12.90
2023-03-08T20:00:43.916Z,12.90
2023-03-08T20:03:12.232Z,12.90
2023-03-08T20:05:44.138Z,12.90
2023-03-08T20:08:11.295Z,12.90
2023-03-08T20:10:38.034Z,13.00
2023-03-08T20:13:04.780Z,12.90
2023-03-08T20:15:32.172Z,13.00
2023-03-08T20:17:58.803Z,13.00
2023-03-08T20:20:25.420Z,13.00
2023-03-08T20:22:52.078Z,13.10
2023-03-08T20:25:18.729Z,13.10
2023-03-08T20:27:45.397Z,13.00
2023-03-08T20:30:13.256Z,13.00
2023-03-08T20:32:39.900Z,13.10
2023-03-08T20:35:07.345Z,13.10
2023-03-08T20:37:33.958Z,13.10
2023-03-08T20:40:02.940Z,13.10
2023-03-08T20:42:31.039Z,13.00
2023-03-08T20:44:57.659Z,13.00
2023-03-08T20:47:24.284Z,12.90
2023-03-08T20:49:51.080Z,12.80
2023-03-08T20:52:17.683Z,12.80
2023-03-08T20:54:44.293Z,12.70
2023-03-08T20:57:10.982Z,12.50
2023-03-08T20:59:37.546Z,12.50
2023-03-08T21:02:04.112Z,12.40
2023-03-08T21:04:30.798Z,12.30
2023-03-08T21:06:57.584Z,12.20
2023-03-08T21:09:24.182Z,12.10
2023-03-08T21:11:50.908Z,12.20
2023-03-08T21:14:17.509Z,12.10
2023-03-08T21:16:44.424Z,12.10
2023-03-08T21:19:11.040Z,12.10
2023-03-08T21:21:41.001Z,12.00
2023-03-08T21:24:14.544Z,12.00
2023-03-08T21:26:41.403Z,12.00
2023-03-08T21:29:11.062Z,12.00
2023-03-08T21:31:41.562Z,12.00
2023-03-08T21:34:08.965Z,11.90
2023-03-08T21:36:37.847Z,11.90
2023-03-08T21:39:06.000Z,11.90
2023-03-08T21:41:35.076Z,11.80
2023-03-08T21:44:03.323Z,11.90
2023-03-08T21:46:30.046Z,11.80
2023-03-08T21:48:57.300Z,11.80
2023-03-08T21:51:24.552Z,11.80
2023-03-08T21:53:51.305Z,11.80
2023-03-08T21:56:18.812Z,11.80
2023-03-08T21:58:45.646Z,11.90
2023-03-08T22:01:21.516Z,11.90
2023-03-08T22:03:48.734Z,11.90
2023-03-08T22:06:15.479Z,11.90
2023-03-08T22:08:42.102Z,11.90
2023-03-08T22:11:08.974Z,11.80
2023-03-08T22:13:35.888Z,11.80
2023-03-08T22:16:02.689Z,11.70
2023-03-08T22:18:29.582Z,11.70
2023-03-08T22:20:56.215Z,11.60
2023-03-08T22:23:22.946Z,11.50
2023-03-08T22:25:49.688Z,11.50
2023-03-08T22:28:16.243Z,11.40
2023-03-08T22:30:42.931Z,11.40
2023-03-08T22:33:09.754Z,11.50
2023-03-08T22:35:36.719Z,11.40
2023-03-08T22:38:03.503Z,11.40
2023-03-08T22:40:30.196Z,11.40
2023-03-08T22:42:57.033Z,11.40
2023-03-08T22:45:24.012Z,11.40
2023-03-08T22:47:51.955Z,11.40
2023-03-08T22:50:18.582Z,11.40
2023-03-08T22:52:45.180Z,11.50
2023-03-08T22:55:12.321Z,11.50
2023-03-08T22:57:38.900Z,11.50
2023-03-08T23:00:14.163Z,11.50
2023-03-08T23:02:42.306Z,11.40
2023-03-08T23:05:13.151Z,11.30
2023-03-08T23:07:39.830Z,11.30
2023-03-08T23:10:07.356Z,11.30
2023-03-08T23:12:33.993Z,11.30
2023-03-08T23:15:00.698Z,11.30
2023-03-08T23:17:27.340Z,11.30
2023-03-08T23:19:53.983Z,11.30
2023-03-08T23:22:20.701Z,11.30
2023-03-08T23:24:47.461Z,11.20
2023-03-08T23:27:14.274Z,11.20
2023-03-08T23:29:40.854Z,11.20
2023-03-08T23:32:07.908Z,11.20
2023-03-08T23:34:35.352Z,11.20
2023-03-08T23:37:04.056Z,11.30
2023-03-08T23:39:34.075Z,11.30
2023-03-08T23:42:01.403Z,11.30
2023-03-08T23:44:28.111Z,11.30
2023-03-08T23:46:54.762Z,11.40
2023-03-08T23:49:21.358Z,11.40
2023-03-08T23:51:47.973Z,11.40
2023-03-08T23:54:14.571Z,11.50
2023-03-08T23:56:41.468Z,11.50
2023-03-08T23:59:20.890Z,11.50
